Time;durP1;ratioP1;P1;durP2;ratioP2;P2;SDS_P1;SDS_P2;PMS_P1;PMS_P2;Temp;Humidity;BMP_temperature;BMP_pressure;BME280_temperature;BME280_humidity;BME280_pressure;Samples;Min_cycle;Max_cycle;Signal;HPM_P1;HPM_P2
2022/08/28 00:00:23;;;;;;;6.70;2.90;;;12.20;81.80;;;;;;4911396;29;20286;-66
2022/08/28 00:02:49;;;;;;;6.30;2.53;;;12.10;82.30;;;;;;4940081;28;20282;-66
2022/08/28 00:05:18;;;;;;;14.80;6.60;;;12.10;82.10;;;;;;4919233;29;20274;-66
2022/08/28 00:07:44;;;;;;;13.00;7.27;;;12.10;82.20;;;;;;4933819;28;20285;-66
2022/08/28 00:10:11;;;;;;;18.03;8.40;;;12.10;82.50;;;;;;4933084;29;20291;-66
2022/08/28 00:12:37;;;;;;;16.10;6.87;;;12.00;82.70;;;;;;4903550;28;20043;-66
2022/08/28 00:15:09;;;;;;;10.23;6.57;;;12.00;82.80;;;;;;4916709;29;20311;-66
2022/08/28 00:17:35;;;;;;;8.00;4.40;;;11.90;82.50;;;;;;4928899;29;20298;-66
2022/08/28 00:20:01;;;;;;;10.87;4.23;;;11.90;82.30;;;;;;4927596;29;20286;-66
2022/08/28 00:22:26;;;;;;;8.33;3.50;;;11.90;82.10;;;;;;4915879;28;20309;-66
2022/08/28 00:24:52;;;;;;;12.13;3.60;;;11.90;81.90;;;;;;4942149;29;20509;-66
2022/08/28 00:30:03;;;;;;;7.47;3.10;;;11.90;81.80;;;;;;4915700;29;20174;-66
2022/08/28 00:32:29;;;;;;;11.97;2.60;;;11.90;81.90;;;;;;4916173;29;20714;-67
2022/08/28 00:34:54;;;;;;;9.93;2.73;;;11.90;81.80;;;;;;4903139;29;20320;-66
2022/08/28 00:37:20;;;;;;;12.40;3.37;;;11.90;81.80;;;;;;4930306;29;20052;-66
2022/08/28 00:39:46;;;;;;;9.90;3.33;;;11.90;81.60;;;;;;4906356;29;20039;-67
2022/08/28 00:42:12;;;;;;;7.77;2.60;;;11.90;81.30;;;;;;4902594;29;20571;-67
2022/08/28 00:44:38;;;;;;;7.20;2.43;;;11.90;81.30;;;;;;4918141;29;20385;-67
2022/08/28 00:47:04;;;;;;;8.50;2.20;;;11.90;81.70;;;;;;4905427;29;20043;-66
2022/08/28 00:49:34;;;;;;;8.57;2.80;;;11.90;81.70;;;;;;4912769;29;20046;-66
2022/08/28 00:52:07;;;;;;;8.60;2.90;;;11.90;81.90;;;;;;4931687;29;20039;-66
2022/08/28 00:54:47;;;;;;;8.83;2.40;;;11.80;82.00;;;;;;4930670;28;20394;-67
2022/08/28 00:57:18;;;;;;;8.73;2.33;;;11.80;82.00;;;;;;4927574;29;20291;-67
2022/08/28 00:59:44;;;;;;;9.87;2.57;;;11.80;82.10;;;;;;4933736;29;20352;-67
2022/08/28 01:02:10;;;;;;;8.67;2.60;;;11.80;82.40;;;;;;4919030;29;20773;-67
2022/08/28 01:04:36;;;;;;;8.10;2.10;;;11.80;82.30;;;;;;4934143;29;20286;-67
2022/08/28 01:07:08;;;;;;;5.40;2.30;;;11.80;82.00;;;;;;4926795;29;20039;-67
2022/08/28 01:09:37;;;;;;;5.57;1.90;;;11.80;82.00;;;;;;4936877;29;20290;-66
2022/08/28 01:12:10;;;;;;;9.23;2.97;;;11.70;81.70;;;;;;4915796;28;20294;-66
2022/08/28 01:14:40;;;;;;;9.60;2.60;;;11.70;81.80;;;;;;4936552;29;20310;-67
2022/08/28 01:17:08;;;;;;;6.40;1.87;;;11.70;81.90;;;;;;4915329;29;20411;-66
2022/08/28 01:19:39;;;;;;;6.88;2.65;;;11.80;82.50;;;;;;4920594;29;20362;-66
2022/08/28 01:22:23;;;;;;;6.43;2.60;;;11.80;82.20;;;;;;4938430;28;20042;-66
2022/08/28 01:24:51;;;;;;;6.90;2.50;;;11.80;82.10;;;;;;4920292;29;20377;-67
2022/08/28 01:27:17;;;;;;;7.90;2.40;;;11.80;82.00;;;;;;4934348;28;20286;-67
2022/08/28 01:29:43;;;;;;;6.27;2.27;;;11.80;82.10;;;;;;4934336;29;20050;-67
2022/08/28 01:32:09;;;;;;;10.15;2.33;;;11.70;82.00;;;;;;4937922;29;20298;-67
2022/08/28 01:34:35;;;;;;;6.13;2.10;;;11.70;82.00;;;;;;4906102;29;20043;-67
2022/08/28 01:37:01;;;;;;;6.27;2.33;;;11.70;82.10;;;;;;4921175;29;20081;-66
2022/08/28 01:39:27;;;;;;;11.10;2.22;;;11.70;82.30;;;;;;4927809;28;20047;-66
2022/08/28 01:41:54;;;;;;;7.70;2.63;;;11.70;82.10;;;;;;4924514;29;20047;-66
2022/08/28 01:44:24;;;;;;;6.75;2.22;;;11.70;82.50;;;;;;4914498;29;20800;-66
2022/08/28 01:46:56;;;;;;;7.93;2.60;;;11.80;83.10;;;;;;4935104;29;20062;-67
2022/08/28 01:49:23;;;;;;;6.93;2.42;;;11.80;82.60;;;;;;4932222;29;20124;-67
2022/08/28 01:51:49;;;;;;;8.93;2.40;;;11.80;82.80;;;;;;4928530;29;20035;-67
2022/08/28 01:54:15;;;;;;;7.43;2.60;;;11.90;83.00;;;;;;4909185;29;20330;-67
2022/08/28 01:56:43;;;;;;;7.27;2.63;;;11.90;82.60;;;;;;4920284;28;20042;-67
2022/08/28 01:59:10;;;;;;;6.57;1.90;;;11.90;82.50;;;;;;4931953;29;20130;-67
2022/08/28 02:01:35;;;;;;;7.07;2.40;;;11.90;83.00;;;;;;4933394;29;20295;-67
2022/08/28 02:04:03;;;;;;;7.57;2.57;;;11.90;82.80;;;;;;4906880;29;20443;-67
2022/08/28 02:06:30;;;;;;;6.80;2.30;;;11.90;83.00;;;;;;4929968;29;20055;-67
2022/08/28 02:08:56;;;;;;;8.35;2.78;;;11.90;83.10;;;;;;4916174;29;20042;-67
2022/08/28 02:11:23;;;;;;;8.30;2.30;;;11.90;83.10;;;;;;4921010;29;20043;-66
2022/08/28 02:13:50;;;;;;;10.60;2.97;;;11.90;83.00;;;;;;4921673;29;20051;-66
2022/08/28 02:16:16;;;;;;;8.97;2.47;;;11.90;83.00;;;;;;4921126;29;20378;-66
2022/08/28 02:18:42;;;;;;;9.77;2.47;;;11.90;82.90;;;;;;4936015;29;20298;-67
2022/08/28 02:21:09;;;;;;;7.37;2.40;;;11.90;82.90;;;;;;4936354;28;20809;-67
2022/08/28 02:23:38;;;;;;;8.70;2.50;;;11.80;82.90;;;;;;4934995;28;20528;-67
2022/08/28 02:26:04;;;;;;;7.93;2.33;;;11.80;82.80;;;;;;4911724;29;20298;-67
2022/08/28 02:28:29;;;;;;;9.50;2.00;;;11.80;82.90;;;;;;4920564;28;20039;-67
2022/08/28 02:30:55;;;;;;;11.60;2.63;;;11.90;82.90;;;;;;4929846;29;20070;-67
2022/08/28 02:33:21;;;;;;;9.13;2.17;;;11.80;82.80;;;;;;4894299;28;20048;-67
2022/08/28 02:35:48;;;;;;;8.47;2.17;;;11.90;83.20;;;;;;4919569;29;20039;-67
2022/08/28 02:38:14;;;;;;;5.95;2.22;;;11.80;82.90;;;;;;4912317;28;20053;-67
2022/08/28 02:40:40;;;;;;;7.15;1.95;;;11.80;82.90;;;;;;4935379;29;20035;-67
2022/08/28 02:43:06;;;;;;;8.77;1.90;;;11.80;83.10;;;;;;4917372;28;20385;-67
2022/08/28 02:45:32;;;;;;;4.50;1.70;;;11.70;83.40;;;;;;4919769;29;20046;-67
2022/08/28 02:48:00;;;;;;;7.50;2.20;;;11.70;83.10;;;;;;4907823;28;20047;-67
2022/08/28 02:50:26;;;;;;;7.63;2.37;;;11.60;83.20;;;;;;4929316;29;20088;-67
2022/08/28 02:52:52;;;;;;;6.30;2.10;;;11.60;83.60;;;;;;4937156;28;20326;-67
2022/08/28 02:55:19;;;;;;;5.60;2.20;;;11.50;83.70;;;;;;4912353;29;20043;-67
2022/08/28 02:57:46;;;;;;;7.68;2.30;;;11.50;84.40;;;;;;4930357;28;20397;-66
2022/08/28 03:00:16;;;;;;;7.90;1.80;;;11.40;84.50;;;;;;4919910;29;20074;-67
2022/08/28 03:02:44;;;;;;;6.80;2.23;;;11.40;85.00;;;;;;4934080;28;20468;-67
2022/08/28 03:05:11;;;;;;;7.35;1.77;;;11.30;85.10;;;;;;4908743;29;20282;-67
2022/08/28 03:07:37;;;;;;;6.80;1.90;;;11.30;84.70;;;;;;4918641;28;20472;-67
2022/08/28 03:10:04;;;;;;;9.53;2.77;;;11.30;84.90;;;;;;4924660;29;20424;-67
2022/08/28 03:12:29;;;;;;;7.07;2.08;;;11.20;85.50;;;;;;4917342;29;20039;-67
2022/08/28 03:14:55;;;;;;;5.87;1.70;;;11.20;85.30;;;;;;4900967;29;20050;-67
2022/08/28 03:17:21;;;;;;;6.93;2.30;;;11.20;85.00;;;;;;4916380;28;20488;-67
2022/08/28 03:19:48;;;;;;;8.23;2.43;;;11.20;85.00;;;;;;4915153;29;20409;-67
2022/08/28 03:22:16;;;;;;;6.15;2.22;;;11.20;84.90;;;;;;4917714;28;20408;-67
2022/08/28 03:24:43;;;;;;;8.82;1.92;;;11.20;85.50;;;;;;4929966;29;20051;-67
2022/08/28 03:27:09;;;;;;;7.05;2.53;;;11.10;85.40;;;;;;4917349;28;20082;-67
2022/08/28 03:29:35;;;;;;;5.13;2.43;;;11.10;85.50;;;;;;4916511;29;20075;-67
2022/08/28 03:32:01;;;;;;;7.63;2.00;;;11.00;85.70;;;;;;4925138;28;20043;-67
2022/08/28 03:34:26;;;;;;;6.40;1.50;;;11.00;85.20;;;;;;4927452;29;20109;-67
2022/08/28 03:36:52;;;;;;;3.90;1.80;;;11.00;85.50;;;;;;4898046;28;20043;-67
2022/08/28 03:39:18;;;;;;;7.03;2.20;;;11.10;85.30;;;;;;4924569;28;20140;-67
2022/08/28 03:41:43;;;;;;;5.63;2.20;;;11.10;85.30;;;;;;4936086;28;20035;-67
2022/08/28 03:44:09;;;;;;;7.20;1.60;;;11.10;85.10;;;;;;4920009;29;20460;-67
2022/08/28 03:46:35;;;;;;;7.97;1.70;;;11.10;85.10;;;;;;4933105;28;20403;-66
2022/08/28 03:49:02;;;;;;;5.57;1.50;;;11.10;85.00;;;;;;4899435;29;20046;-66
2022/08/28 03:51:30;;;;;;;6.13;1.50;;;11.10;84.80;;;;;;4935410;28;20118;-66
2022/08/28 03:53:58;;;;;;;5.65;2.08;;;11.20;85.30;;;;;;4925993;29;20051;-66
2022/08/28 03:56:26;;;;;;;5.17;1.43;;;11.20;85.30;;;;;;4922796;28;20130;-67
2022/08/28 03:58:54;;;;;;;7.85;1.45;;;11.30;85.30;;;;;;4914100;29;20306;-67
2022/08/28 04:01:21;;;;;;;6.85;1.90;;;11.30;85.00;;;;;;4922144;29;20447;-67
2022/08/28 04:03:46;;;;;;;4.93;1.77;;;11.30;84.90;;;;;;4905244;29;20035;-67
2022/08/28 04:06:13;;;;;;;4.77;1.60;;;11.30;84.60;;;;;;4933819;28;20121;-67
2022/08/28 04:08:38;;;;;;;8.43;1.73;;;11.40;84.50;;;;;;4933539;29;20400;-67
2022/08/28 04:11:05;;;;;;;5.20;1.70;;;11.40;84.70;;;;;;4933779;29;20046;-67
2022/08/28 04:13:31;;;;;;;6.28;1.92;;;11.40;84.50;;;;;;4931229;29;20086;-67
2022/08/28 04:15:57;;;;;;;4.60;1.23;;;11.40;84.30;;;;;;4928290;29;20083;-67
2022/08/28 04:18:23;;;;;;;6.50;1.70;;;11.40;84.30;;;;;;4934029;29;20106;-67
2022/08/28 04:21:13;;;;;;;4.20;1.37;;;11.30;84.20;;;;;;4912372;29;20294;-67
2022/08/28 04:23:41;;;;;;;5.07;1.85;;;11.30;84.60;;;;;;4923834;28;20043;-67
2022/08/28 04:26:08;;;;;;;5.93;1.58;;;11.30;85.20;;;;;;4924005;29;20484;-67
2022/08/28 04:28:34;;;;;;;7.82;1.60;;;11.30;85.80;;;;;;4915717;28;20039;-67
2022/08/28 04:31:00;;;;;;;5.97;1.30;;;11.20;85.60;;;;;;4938390;29;20070;-67
2022/08/28 04:33:28;;;;;;;3.57;1.40;;;11.20;85.70;;;;;;4933171;28;20055;-67
2022/08/28 04:35:54;;;;;;;4.82;1.55;;;11.20;85.30;;;;;;4923624;29;20086;-67
2022/08/28 04:38:20;;;;;;;8.10;1.85;;;11.20;85.10;;;;;;4925284;28;20137;-68
2022/08/28 04:40:46;;;;;;;7.53;1.50;;;11.10;85.00;;;;;;4931566;29;20051;-67
2022/08/28 04:43:12;;;;;;;5.47;1.43;;;11.10;85.30;;;;;;4934091;28;20753;-67
2022/08/28 04:45:39;;;;;;;6.03;1.97;;;11.10;85.30;;;;;;4924867;29;20043;-67
2022/08/28 04:48:06;;;;;;;4.53;1.60;;;11.10;85.10;;;;;;4952651;28;20302;-67
2022/08/28 04:50:32;;;;;;;5.03;1.42;;;11.10;85.40;;;;;;4915250;29;20824;-67
2022/08/28 04:52:57;;;;;;;8.18;1.83;;;11.20;85.90;;;;;;4916146;29;20043;-67
2022/08/28 04:55:23;;;;;;;5.03;2.07;;;11.20;85.90;;;;;;4907205;29;20046;-67
2022/08/28 04:57:49;;;;;;;5.97;1.77;;;11.30;85.80;;;;;;4933220;28;20098;-67
2022/08/28 05:00:15;;;;;;;7.37;2.03;;;11.40;85.70;;;;;;4947923;28;20354;-67
2022/08/28 05:02:41;;;;;;;6.75;1.65;;;11.50;85.60;;;;;;4918209;28;20047;-67
2022/08/28 05:05:07;;;;;;;8.17;1.40;;;11.60;85.30;;;;;;4932729;29;20094;-67
2022/08/28 05:07:33;;;;;;;2.88;1.40;;;11.70;85.20;;;;;;4928840;29;20040;-67
2022/08/28 05:09:59;;;;;;;8.98;1.92;;;11.80;85.00;;;;;;4931882;29;20167;-67
2022/08/28 05:12:25;;;;;;;5.40;1.40;;;11.90;85.00;;;;;;4918175;28;20429;-67
2022/08/28 05:14:51;;;;;;;6.50;1.70;;;12.00;84.80;;;;;;4914286;29;20039;-67
2022/08/28 05:17:17;;;;;;;7.33;1.63;;;12.10;84.80;;;;;;4934528;28;20651;-67
2022/08/28 05:19:42;;;;;;;4.50;1.33;;;12.30;84.60;;;;;;4934473;29;20491;-67
2022/08/28 05:22:09;;;;;;;4.57;1.17;;;12.40;84.40;;;;;;4912117;29;20042;-67
2022/08/28 05:24:36;;;;;;;9.73;1.37;;;12.60;84.00;;;;;;4912917;29;20891;-67
2022/08/28 05:27:02;;;;;;;4.77;1.20;;;12.80;83.60;;;;;;4927230;28;20279;-67
2022/08/28 05:29:28;;;;;;;7.37;1.40;;;12.90;83.30;;;;;;4929485;29;20362;-67
2022/08/28 05:31:54;;;;;;;8.83;1.60;;;13.10;83.10;;;;;;4915244;28;20040;-67
2022/08/28 05:34:20;;;;;;;4.50;1.10;;;13.30;82.80;;;;;;4906955;28;20746;-67
2022/08/28 05:36:46;;;;;;;4.00;1.60;;;13.40;82.50;;;;;;4917190;28;20488;-67
2022/08/28 05:39:12;;;;;;;5.07;1.30;;;13.50;82.10;;;;;;4914029;29;20295;-67
2022/08/28 05:41:42;;;;;;;9.00;1.47;;;13.70;81.70;;;;;;4922942;29;20323;-67
2022/08/28 05:44:09;;;;;;;4.03;1.00;;;13.80;81.60;;;;;;4917000;29;20381;-67
2022/08/28 05:46:38;;;;;;;8.13;1.23;;;13.90;81.30;;;;;;4930734;28;20279;-67
2022/08/28 05:49:06;;;;;;;5.03;1.70;;;14.10;81.00;;;;;;4932311;29;20278;-68
2022/08/28 05:51:33;;;;;;;3.90;1.80;;;14.20;80.80;;;;;;4933369;28;20290;-67
2022/08/28 05:53:58;;;;;;;5.13;1.23;;;14.40;80.50;;;;;;4901600;29;20289;-67
2022/08/28 05:56:28;;;;;;;6.10;1.20;;;14.50;80.00;;;;;;4920858;28;20290;-67
2022/08/28 05:58:55;;;;;;;5.13;1.20;;;14.60;79.80;;;;;;4935581;29;20066;-67
2022/08/28 06:01:27;;;;;;;8.30;1.90;;;14.70;79.60;;;;;;4916917;28;20309;-67
2022/08/28 06:03:57;;;;;;;4.90;1.43;;;14.70;79.40;;;;;;4932741;28;20766;-67
2022/08/28 06:06:24;;;;;;;7.97;1.40;;;14.80;79.00;;;;;;4916697;28;20684;-67
2022/08/28 06:08:59;;;;;;;6.20;1.17;;;14.90;78.60;;;;;;4936273;29;20310;-67
2022/08/28 06:11:27;;;;;;;7.27;1.17;;;15.00;78.40;;;;;;4937055;29;20294;-67
2022/08/28 06:13:53;;;;;;;5.50;1.30;;;15.10;78.20;;;;;;4930186;28;20455;-67
2022/08/28 06:16:19;;;;;;;7.00;1.27;;;15.10;77.70;;;;;;4922628;28;20303;-67
2022/08/28 06:18:45;;;;;;;5.80;1.40;;;15.20;77.40;;;;;;4914842;28;20296;-67
2022/08/28 06:21:12;;;;;;;6.10;1.30;;;15.30;77.00;;;;;;4935719;29;20297;-67
2022/08/28 06:23:37;;;;;;;2.83;1.20;;;15.40;76.50;;;;;;4903941;28;20295;-67
2022/08/28 06:26:05;;;;;;;5.07;1.20;;;15.50;75.90;;;;;;4933388;28;20870;-67
2022/08/28 06:28:32;;;;;;;7.17;1.67;;;15.70;75.30;;;;;;4921806;29;20058;-67
2022/08/28 06:31:01;;;;;;;7.30;1.30;;;15.80;75.00;;;;;;4919757;28;20290;-67
2022/08/28 06:33:27;;;;;;;9.07;1.23;;;15.90;74.50;;;;;;4917702;28;20296;-67
2022/08/28 06:35:54;;;;;;;5.37;1.33;;;16.00;74.20;;;;;;4900023;28;20844;-68
2022/08/28 06:38:22;;;;;;;8.47;1.47;;;16.00;73.60;;;;;;4938682;28;20050;-67
2022/08/28 06:40:51;;;;;;;4.90;1.27;;;16.00;73.90;;;;;;4934678;28;20279;-67
2022/08/28 06:43:19;;;;;;;7.30;1.30;;;16.00;73.80;;;;;;4937463;28;20640;-67
2022/08/28 06:45:47;;;;;;;4.50;1.40;;;16.10;73.40;;;;;;4930623;28;20339;-67
2022/08/28 06:48:15;;;;;;;6.10;0.90;;;16.20;73.50;;;;;;4936210;28;20398;-68
2022/08/28 06:50:44;;;;;;;6.33;0.90;;;16.30;73.20;;;;;;4920064;28;21041;-67
2022/08/28 06:53:13;;;;;;;5.13;1.27;;;16.40;72.70;;;;;;4938329;28;20750;-67
2022/08/28 06:55:39;;;;;;;4.50;0.87;;;16.50;72.60;;;;;;4931546;28;20307;-67
2022/08/28 06:58:05;;;;;;;5.70;0.77;;;16.60;72.40;;;;;;4920289;28;20299;-68
2022/08/28 07:00:31;;;;;;;5.17;1.10;;;16.80;71.70;;;;;;4935258;28;20294;-68
2022/08/28 07:02:58;;;;;;;5.43;1.10;;;16.90;70.80;;;;;;4921915;28;20042;-68
2022/08/28 07:05:24;;;;;;;5.83;1.00;;;17.00;70.60;;;;;;4936282;28;20860;-68
2022/08/28 07:07:50;;;;;;;3.43;0.80;;;17.10;69.90;;;;;;4935050;28;20307;-67
2022/08/28 07:10:16;;;;;;;6.67;1.20;;;17.30;68.70;;;;;;4915360;28;20287;-68
2022/08/28 07:12:43;;;;;;;4.17;1.03;;;17.50;67.40;;;;;;4895952;29;20046;-67
2022/08/28 07:15:09;;;;;;;6.10;0.90;;;17.60;67.30;;;;;;4903593;29;20306;-67
2022/08/28 07:17:35;;;;;;;3.37;0.80;;;17.70;66.40;;;;;;4898565;29;21241;-71
2022/08/28 07:20:03;;;;;;;8.60;1.43;;;17.70;66.20;;;;;;4916658;28;20370;-67
2022/08/28 07:22:28;;;;;;;4.23;0.93;;;17.60;66.60;;;;;;4911793;29;20044;-67
2022/08/28 07:24:55;;;;;;;5.60;1.17;;;17.50;66.50;;;;;;4916658;29;20293;-67
2022/08/28 07:27:23;;;;;;;5.37;1.00;;;17.30;66.80;;;;;;4931409;29;20047;-67
2022/08/28 07:29:49;;;;;;;6.77;1.20;;;17.20;67.20;;;;;;4902309;29;20291;-67
2022/08/28 07:32:16;;;;;;;6.93;1.63;;;17.20;67.50;;;;;;4916389;29;20904;-67
2022/08/28 07:34:42;;;;;;;4.47;1.10;;;17.30;67.50;;;;;;4929065;29;20303;-68
2022/08/28 07:37:07;;;;;;;5.57;1.10;;;17.40;67.40;;;;;;4918664;29;20342;-68
2022/08/28 07:39:34;;;;;;;5.00;0.80;;;17.60;66.20;;;;;;4899653;28;20035;-67
2022/08/28 07:42:00;;;;;;;5.40;1.10;;;17.80;65.00;;;;;;4929260;29;20432;-67
2022/08/28 07:47:10;;;;;;;2.93;1.00;;;18.10;62.90;;;;;;4930392;28;20354;-67
2022/08/28 07:49:37;;;;;;;4.67;0.80;;;18.30;62.30;;;;;;4924513;28;20306;-67
2022/08/28 07:52:04;;;;;;;3.47;1.00;;;18.40;61.70;;;;;;4932255;29;20669;-68
2022/08/28 07:54:30;;;;;;;3.30;0.70;;;18.70;62.10;;;;;;4930964;28;20390;-68
2022/08/28 07:56:56;;;;;;;4.37;0.87;;;18.90;61.40;;;;;;4915789;29;20498;-68
2022/08/28 07:59:22;;;;;;;4.00;1.00;;;19.10;60.80;;;;;;4917231;28;20543;-68
2022/08/28 08:01:49;;;;;;;6.03;1.00;;;19.10;61.10;;;;;;4919471;29;20042;-67
2022/08/28 08:04:16;;;;;;;4.57;1.00;;;19.10;61.50;;;;;;4924397;28;20039;-67
2022/08/28 08:06:43;;;;;;;6.60;0.93;;;19.10;60.50;;;;;;4928979;29;20379;-68
2022/08/28 08:09:13;;;;;;;2.80;0.83;;;19.00;60.40;;;;;;4900334;28;20584;-67
2022/08/28 08:11:39;;;;;;;4.20;0.70;;;18.80;60.60;;;;;;4928810;29;20374;-67
2022/08/28 08:14:06;;;;;;;2.90;0.77;;;18.80;61.10;;;;;;4916737;28;20288;-67
2022/08/28 08:16:38;;;;;;;5.03;0.80;;;18.90;61.00;;;;;;4911138;29;20299;-67
2022/08/28 08:19:05;;;;;;;4.93;1.00;;;19.00;60.60;;;;;;4932520;28;20295;-67
2022/08/28 08:21:31;;;;;;;3.07;0.80;;;19.20;60.40;;;;;;4926181;28;20337;-67
2022/08/28 08:23:57;;;;;;;2.53;0.80;;;19.30;60.20;;;;;;4928075;28;20348;-68
2022/08/28 08:26:26;;;;;;;3.13;0.77;;;19.40;59.90;;;;;;4906097;29;20349;-67
2022/08/28 08:28:53;;;;;;;5.00;0.70;;;19.50;59.50;;;;;;4905723;29;20664;-67
2022/08/28 08:31:21;;;;;;;5.77;0.70;;;19.40;59.40;;;;;;4903390;29;20291;-67
2022/08/28 08:33:50;;;;;;;4.70;0.80;;;19.50;60.00;;;;;;4907157;29;20286;-67
2022/08/28 08:36:18;;;;;;;5.23;0.90;;;19.60;59.10;;;;;;4923064;28;20306;-67
2022/08/28 08:38:44;;;;;;;3.50;0.80;;;19.70;59.30;;;;;;4932496;29;20298;-68
2022/08/28 08:41:35;;;;;;;4.87;1.00;;;19.90;58.70;;;;;;4930210;29;20362;-67
2022/08/28 08:44:20;;;;;;;2.60;0.63;;;20.10;58.90;;;;;;4913433;28;20282;-68
2022/08/28 08:47:06;;;;;;;3.53;0.73;;;20.30;58.10;;;;;;4945403;28;20282;-67
2022/08/28 08:49:36;;;;;;;4.67;0.70;;;20.30;58.10;;;;;;4917637;29;20047;-67
2022/08/28 08:52:29;;;;;;;2.97;0.80;;;20.40;57.70;;;;;;4921689;28;20447;-68
2022/08/28 08:55:26;;;;;;;3.60;0.87;;;20.40;56.30;;;;;;4923707;29;20298;-68
2022/08/28 08:58:08;;;;;;;5.17;1.10;;;20.40;56.90;;;;;;4895427;28;20314;-68
2022/08/28 09:00:45;;;;;;;5.03;1.17;;;20.50;56.30;;;;;;4934155;29;20043;-67
2022/08/28 09:03:23;;;;;;;3.83;0.73;;;20.60;56.70;;;;;;4944719;29;20085;-68
2022/08/28 09:05:59;;;;;;;4.77;1.03;;;20.60;55.90;;;;;;4925260;28;20059;-69
2022/08/28 09:08:44;;;;;;;3.13;0.80;;;20.70;54.60;;;;;;4933513;29;20043;-68
2022/08/28 09:11:33;;;;;;;3.15;0.93;;;20.80;54.60;;;;;;4918291;29;20047;-68
2022/08/28 09:14:06;;;;;;;2.60;0.50;;;20.80;53.80;;;;;;4917031;28;20043;-68
2022/08/28 09:16:37;;;;;;;2.37;0.60;;;20.90;54.30;;;;;;4940379;29;20066;-68
2022/08/28 09:19:05;;;;;;;3.27;0.70;;;21.00;54.20;;;;;;4922520;29;20738;-68
2022/08/28 09:21:37;;;;;;;2.80;0.80;;;21.10;53.70;;;;;;4921135;29;20563;-68
2022/08/28 09:24:07;;;;;;;2.47;0.63;;;21.20;53.90;;;;;;4937355;28;20039;-68
2022/08/28 09:26:33;;;;;;;4.27;1.00;;;21.30;53.30;;;;;;4929101;29;20039;-68
2022/08/28 09:29:15;;;;;;;3.07;0.70;;;21.20;53.60;;;;;;4939235;28;20053;-68
2022/08/28 09:31:42;;;;;;;3.93;0.90;;;21.00;53.00;;;;;;4942242;28;20044;-68
2022/08/28 09:34:22;;;;;;;4.60;0.87;;;20.70;54.20;;;;;;4918769;28;20070;-68
2022/08/28 09:36:48;;;;;;;2.13;0.70;;;20.50;54.60;;;;;;4932641;29;20170;-68
2022/08/28 09:39:26;;;;;;;4.57;0.80;;;20.60;55.10;;;;;;4916403;29;20451;-68
2022/08/28 09:45:02;;;;;;;5.80;1.00;;;21.20;53.70;;;;;;4931133;29;20048;-69
2022/08/28 09:47:53;;;;;;;4.23;0.70;;;21.30;54.20;;;;;;4938870;29;20039;-69
2022/08/28 09:50:21;;;;;;;2.80;0.67;;;21.30;54.20;;;;;;4920464;28;20050;-68
2022/08/28 09:52:48;;;;;;;3.47;0.77;;;21.30;54.30;;;;;;4936548;29;20097;-68
2022/08/28 09:55:42;;;;;;;7.73;0.90;;;21.40;54.00;;;;;;4927991;28;20096;-68
2022/08/28 09:58:09;;;;;;;4.07;0.90;;;21.40;53.50;;;;;;4920759;28;20051;-68
2022/08/28 10:00:39;;;;;;;5.77;0.77;;;21.30;53.40;;;;;;4920096;29;20488;-68
2022/08/28 10:03:19;;;;;;;3.43;0.60;;;21.20;53.20;;;;;;4908996;28;20056;-68
2022/08/28 10:05:55;;;;;;;5.60;0.70;;;21.20;53.30;;;;;;4920627;29;20071;-69
2022/08/28 10:08:35;;;;;;;6.70;0.70;;;21.40;52.70;;;;;;4922602;29;20489;-68
2022/08/28 10:11:22;;;;;;;4.27;0.83;;;21.50;53.40;;;;;;4929115;28;20040;-68
2022/08/28 10:14:09;;;;;;;4.70;0.80;;;21.50;53.50;;;;;;4925771;29;20090;-69
2022/08/28 10:16:53;;;;;;;4.43;0.87;;;21.30;53.80;;;;;;4934645;29;20079;-68
2022/08/28 10:19:25;;;;;;;3.43;1.13;;;21.00;53.30;;;;;;4938693;28;20035;-68
2022/08/28 10:21:56;;;;;;;4.67;1.30;;;20.80;53.80;;;;;;4934391;29;20078;-68
2022/08/28 10:25:19;;;;;;;2.87;0.90;;;20.80;53.80;;;;;;4932278;29;20048;-68
2022/08/28 10:28:04;;;;;;;2.10;0.90;;;20.90;53.60;;;;;;4879095;29;20044;-68
2022/08/28 10:30:35;;;;;;;4.13;0.70;;;20.90;53.60;;;;;;4878778;29;20135;-68
2022/08/28 10:33:09;;;;;;;3.40;0.83;;;21.00;52.50;;;;;;4947349;28;20054;-68
2022/08/28 10:36:05;;;;;;;3.95;0.95;;;20.90;52.40;;;;;;4924634;28;20157;-68
2022/08/28 10:38:38;;;;;;;3.83;0.83;;;20.90;53.40;;;;;;4933994;28;20133;-68
2022/08/28 10:41:14;;;;;;;3.63;1.60;;;21.10;53.70;;;;;;4913736;29;20036;-67
2022/08/28 10:43:45;;;;;;;6.50;0.90;;;21.40;53.50;;;;;;4934221;28;20058;-67
2022/08/28 10:46:14;;;;;;;3.97;1.17;;;21.70;52.30;;;;;;4917732;29;20051;-68
2022/08/28 10:48:47;;;;;;;6.10;0.80;;;21.70;51.70;;;;;;4915008;28;20535;-68
2022/08/28 10:51:41;;;;;;;3.87;1.00;;;21.80;51.30;;;;;;4924356;29;20584;-68
2022/08/28 10:54:35;;;;;;;5.23;0.90;;;21.70;50.10;;;;;;4917382;29;20043;-67
2022/08/28 10:57:19;;;;;;;3.33;1.17;;;21.30;50.90;;;;;;4918315;29;20051;-67
2022/08/28 10:59:49;;;;;;;3.27;0.67;;;21.00;52.10;;;;;;4922081;28;20162;-69
2022/08/28 11:02:18;;;;;;;5.30;0.60;;;20.80;52.70;;;;;;4923887;29;20046;-69
2022/08/28 11:04:46;;;;;;;3.37;0.77;;;21.00;50.80;;;;;;4933143;28;20054;-69
2022/08/28 11:07:20;;;;;;;2.50;0.70;;;21.30;49.60;;;;;;4921956;29;20051;-69
2022/08/28 11:09:47;;;;;;;2.25;0.70;;;21.50;49.90;;;;;;4920296;28;20089;-69
2022/08/28 11:12:17;;;;;;;2.40;0.77;;;21.60;48.30;;;;;;4925537;29;20047;-69
2022/08/28 11:14:51;;;;;;;3.43;0.70;;;21.70;48.20;;;;;;4945834;28;20046;-69
2022/08/28 11:17:29;;;;;;;3.15;0.90;;;21.80;48.50;;;;;;4926788;29;20043;-69
2022/08/28 11:20:17;;;;;;;3.63;1.00;;;21.90;48.40;;;;;;4914141;29;20055;-69
2022/08/28 11:22:45;;;;;;;3.37;0.77;;;22.10;47.80;;;;;;4921290;28;20146;-68
2022/08/28 11:25:40;;;;;;;3.43;0.70;;;22.20;47.30;;;;;;4912058;29;20044;-68
2022/08/28 11:28:24;;;;;;;2.30;0.67;;;22.00;47.60;;;;;;4931259;29;20058;-68
2022/08/28 11:31:05;;;;;;;2.67;0.67;;;22.20;48.20;;;;;;4934631;29;20047;-69
2022/08/28 11:33:40;;;;;;;3.90;0.83;;;22.40;48.70;;;;;;4924685;29;20044;-69
2022/08/28 11:36:18;;;;;;;;;;;22.60;47.20;;;;;;4920538;29;20536;-69
2022/08/28 11:38:43;;;;;;;3.73;0.53;;;22.40;47.50;;;;;;4936247;28;19944;-68
2022/08/28 11:41:21;;;;;;;3.27;0.70;;;22.30;48.30;;;;;;4934602;29;20118;-69
2022/08/28 11:43:51;;;;;;;1.80;0.60;;;22.10;48.30;;;;;;4927037;28;20083;-74
2022/08/28 11:46:34;;;;;;;3.20;0.80;;;21.90;48.60;;;;;;4933121;29;20045;-68
2022/08/28 11:49:27;;;;;;;2.10;1.10;;;22.00;47.30;;;;;;4921156;29;20559;-70
2022/08/28 11:52:21;;;;;;;4.27;0.80;;;22.10;46.70;;;;;;4931721;28;20091;-69
2022/08/28 11:55:13;;;;;;;3.73;0.73;;;22.40;47.10;;;;;;4920049;28;20040;-69
2022/08/28 11:57:48;;;;;;;2.77;0.80;;;22.70;47.00;;;;;;4917027;29;20067;-69
2022/08/28 12:00:26;;;;;;;3.97;1.02;;;22.90;46.60;;;;;;4913503;29;20059;-70
2022/08/28 12:03:00;;;;;;;3.37;0.60;;;23.10;46.70;;;;;;4909658;29;20044;-69
2022/08/28 12:05:29;;;;;;;3.90;0.63;;;23.10;46.10;;;;;;4941403;28;20632;-69
2022/08/28 12:07:55;;;;;;;2.93;0.67;;;22.90;45.90;;;;;;4922667;28;20043;-69
2022/08/28 12:10:25;;;;;;;2.00;0.60;;;22.60;45.60;;;;;;4936898;29;20547;-69
2022/08/28 12:13:03;;;;;;;2.97;0.70;;;22.60;45.90;;;;;;4921594;28;20051;-69
2022/08/28 12:15:29;;;;;;;2.97;0.70;;;22.80;46.30;;;;;;4924904;29;20039;-69
2022/08/28 12:18:01;;;;;;;3.83;0.80;;;23.00;46.40;;;;;;4934973;29;20047;-69
2022/08/28 12:20:46;;;;;;;2.83;0.80;;;23.00;46.90;;;;;;4920215;29;20053;-70
2022/08/28 12:23:30;;;;;;;3.72;0.70;;;22.80;46.70;;;;;;4920657;29;20058;-69
2022/08/28 12:26:14;;;;;;;5.63;0.73;;;22.40;47.50;;;;;;4920180;29;20089;-69
2022/08/28 12:28:48;;;;;;;2.42;0.60;;;22.50;48.10;;;;;;4945418;28;20045;-69
2022/08/28 12:34:40;;;;;;;3.33;0.67;;;23.00;47.10;;;;;;4882002;29;20098;-70
2022/08/28 12:37:36;;;;;;;5.53;0.80;;;23.00;48.00;;;;;;4929210;28;20047;-69
2022/08/28 12:40:17;;;;;;;2.15;0.73;;;23.30;47.00;;;;;;4924252;28;20039;-69
2022/08/28 12:43:07;;;;;;;1.43;0.40;;;23.10;47.50;;;;;;4927023;28;20270;-69
2022/08/28 12:45:36;;;;;;;2.97;0.60;;;22.80;48.40;;;;;;4931122;29;20043;-69
2022/08/28 12:48:20;;;;;;;2.47;0.60;;;22.90;49.20;;;;;;4928314;29;20051;-69
2022/08/28 12:50:46;;;;;;;2.90;0.60;;;23.20;48.50;;;;;;4919960;29;20083;-69
2022/08/28 12:53:15;;;;;;;3.57;0.50;;;23.30;47.60;;;;;;4909559;28;20051;-69
2022/08/28 12:55:43;;;;;;;4.80;0.70;;;23.20;47.80;;;;;;4935816;29;20035;-70
2022/08/28 12:58:28;;;;;;;1.50;0.70;;;23.30;48.20;;;;;;4895506;29;20337;-69
2022/08/28 13:00:58;;;;;;;2.85;0.63;;;23.50;48.40;;;;;;4937451;29;20043;-69
2022/08/28 13:03:24;;;;;;;2.73;0.83;;;23.60;48.00;;;;;;4912666;29;20091;-69
2022/08/28 13:06:05;;;;;;;4.93;0.90;;;23.60;48.20;;;;;;4903989;28;20043;-69
2022/08/28 13:08:35;;;;;;;5.27;0.80;;;23.50;48.50;;;;;;4909133;29;20043;-69
2022/08/28 13:11:02;;;;;;;3.87;0.60;;;23.30;48.50;;;;;;4918649;28;20094;-70
2022/08/28 13:13:43;;;;;;;2.90;0.50;;;23.20;49.00;;;;;;4947748;28;20574;-69